createdAt,value
2022-10-08T00:01:39.285Z,1.63
2022-10-08T00:04:11.866Z,1.47
2022-10-08T00:06:40.844Z,1.53
2022-10-08T00:09:09.805Z,1.70
2022-10-08T00:11:40.850Z,1.77
2022-10-08T00:14:10.695Z,1.83
2022-10-08T00:16:41.065Z,2.07
2022-10-08T00:19:13.954Z,1.53
2022-10-08T00:21:44.750Z,2.60
2022-10-08T00:24:15.631Z,1.40
2022-10-08T00:26:45.020Z,1.67
2022-10-08T00:29:16.264Z,1.60
2022-10-08T00:31:48.132Z,1.70
2022-10-08T00:34:21.107Z,1.90
2022-10-08T00:36:52.954Z,1.67
2022-10-08T00:39:24.058Z,1.93
2022-10-08T00:41:54.850Z,1.87
2022-10-08T00:44:52.433Z,1.67
2022-10-08T00:47:26.834Z,2.27
2022-10-08T00:50:01.604Z,1.63
2022-10-08T00:52:35.872Z,2.03
2022-10-08T00:55:08.583Z,2.17
2022-10-08T00:57:39.043Z,1.47
2022-10-08T01:00:11.041Z,1.87
2022-10-08T01:02:40.015Z,2.60
2022-10-08T01:05:12.419Z,2.10
2022-10-08T01:07:49.981Z,1.67
2022-10-08T01:10:27.655Z,2.20
2022-10-08T01:13:14.834Z,1.90
2022-10-08T01:15:54.015Z,1.80
2022-10-08T01:18:30.569Z,1.37
2022-10-08T01:21:10.013Z,1.87
2022-10-08T01:23:59.594Z,2.00
2022-10-08T01:26:45.871Z,1.80
2022-10-08T01:29:22.929Z,2.10
2022-10-08T01:31:55.069Z,1.83
2022-10-08T01:34:32.032Z,2.10
2022-10-08T01:37:04.164Z,2.30
2022-10-08T01:39:37.028Z,2.03
2022-10-08T01:42:09.433Z,2.07
2022-10-08T01:44:46.358Z,2.33
2022-10-08T01:47:19.295Z,1.60
2022-10-08T01:49:53.014Z,1.77
2022-10-08T01:52:26.719Z,1.97
2022-10-08T01:54:59.363Z,1.70
2022-10-08T01:57:30.202Z,1.60
2022-10-08T02:00:06.284Z,1.70
2022-10-08T02:02:42.217Z,1.80
2022-10-08T02:05:12.311Z,1.60
2022-10-08T02:07:43.273Z,1.63
2022-10-08T02:10:15.231Z,1.90
2022-10-08T02:12:45.567Z,2.10
2022-10-08T02:15:19.987Z,1.80
2022-10-08T02:17:57.166Z,1.53
2022-10-08T02:20:33.560Z,1.90
2022-10-08T02:23:09.059Z,1.90
2022-10-08T02:25:42.221Z,1.77
2022-10-08T02:28:19.040Z,2.00
2022-10-08T02:30:53.110Z,1.80
2022-10-08T02:33:27.606Z,1.83
2022-10-08T02:36:00.352Z,2.60
2022-10-08T02:38:34.190Z,1.47
2022-10-08T02:41:06.355Z,2.00
2022-10-08T02:43:39.988Z,1.60
2022-10-08T02:46:17.286Z,2.13
2022-10-08T02:48:51.018Z,1.93
2022-10-08T02:51:21.128Z,2.00
2022-10-08T02:53:50.231Z,1.87
2022-10-08T02:56:25.394Z,1.80
2022-10-08T02:58:55.816Z,2.23
2022-10-08T03:01:34.900Z,1.80
2022-10-08T03:04:09.824Z,1.67
2022-10-08T03:06:39.295Z,1.93
2022-10-08T03:09:11.458Z,2.20
2022-10-08T03:11:40.788Z,2.03
2022-10-08T03:14:14.663Z,2.20
2022-10-08T03:16:47.471Z,1.57
2022-10-08T03:19:18.278Z,1.63
2022-10-08T03:21:50.494Z,1.60
2022-10-08T03:24:19.418Z,1.67
2022-10-08T03:26:48.395Z,1.50
2022-10-08T03:29:17.319Z,1.77
2022-10-08T03:31:48.984Z,1.77
2022-10-08T03:34:18.216Z,2.37
2022-10-08T03:36:47.233Z,1.70
2022-10-08T03:39:16.125Z,1.57
2022-10-08T03:41:45.072Z,2.20
2022-10-08T03:44:14.016Z,2.20
2022-10-08T03:46:42.926Z,1.70
2022-10-08T03:49:13.217Z,2.03
2022-10-08T03:51:42.161Z,1.67
2022-10-08T03:54:11.215Z,1.87
2022-10-08T03:56:40.369Z,1.93
2022-10-08T03:59:09.430Z,1.53
2022-10-08T04:01:38.762Z,1.67
2022-10-08T04:04:07.748Z,2.07
2022-10-08T04:06:38.000Z,1.80
2022-10-08T04:09:06.918Z,1.67
2022-10-08T04:11:35.826Z,2.07
2022-10-08T04:14:04.764Z,1.87
2022-10-08T04:16:33.817Z,2.13
2022-10-08T04:19:02.757Z,2.30
2022-10-08T04:21:32.511Z,2.40
2022-10-08T04:24:03.145Z,2.57
2022-10-08T04:26:32.101Z,2.20
2022-10-08T04:29:01.539Z,1.63
2022-10-08T04:31:30.567Z,2.10
2022-10-08T04:33:59.505Z,2.13
2022-10-08T04:36:28.424Z,2.07
2022-10-08T04:38:57.392Z,2.30
2022-10-08T04:41:28.012Z,2.17
2022-10-08T04:44:01.047Z,2.10
2022-10-08T04:46:30.285Z,2.10
2022-10-08T04:49:00.109Z,2.80
2022-10-08T04:51:29.263Z,2.17
2022-10-08T04:53:58.685Z,1.87
2022-10-08T04:56:31.009Z,1.67
2022-10-08T04:59:00.480Z,2.30
2022-10-08T05:01:30.877Z,2.57
2022-10-08T05:04:01.073Z,2.50
2022-10-08T05:06:32.151Z,2.50
2022-10-08T05:09:03.035Z,1.83
2022-10-08T05:11:34.087Z,2.40
2022-10-08T05:14:03.238Z,2.20
2022-10-08T05:16:32.493Z,2.37
2022-10-08T05:19:01.400Z,2.53
2022-10-08T05:21:32.777Z,2.20
2022-10-08T05:24:03.528Z,1.93
2022-10-08T05:26:56.897Z,1.97
2022-10-08T05:29:25.193Z,2.37
2022-10-08T05:31:54.109Z,2.30
2022-10-08T05:34:23.332Z,2.63
2022-10-08T05:36:52.295Z,2.10
2022-10-08T05:39:21.247Z,1.77
2022-10-08T05:41:51.721Z,2.53
2022-10-08T05:44:20.724Z,2.13
2022-10-08T05:46:49.666Z,2.80
2022-10-08T05:49:21.500Z,2.57
2022-10-08T05:51:51.041Z,2.67
2022-10-08T05:54:20.790Z,2.33
2022-10-08T05:56:51.448Z,2.70
2022-10-08T05:59:22.639Z,2.40
2022-10-08T06:01:52.155Z,2.40
2022-10-08T06:04:21.150Z,2.53
2022-10-08T06:06:50.154Z,2.43
2022-10-08T06:09:21.549Z,2.43
2022-10-08T06:11:52.349Z,1.93
2022-10-08T06:14:21.285Z,2.83
2022-10-08T06:16:50.363Z,2.53
2022-10-08T06:19:19.482Z,2.03
2022-10-08T06:21:48.399Z,2.70
2022-10-08T06:24:17.332Z,2.50
2022-10-08T06:26:46.271Z,3.17
2022-10-08T06:29:18.614Z,2.63
2022-10-08T06:31:47.796Z,2.37
2022-10-08T06:34:16.974Z,2.77
2022-10-08T06:36:45.894Z,2.20
2022-10-08T06:39:16.400Z,2.67
2022-10-08T06:41:45.367Z,2.80
2022-10-08T06:44:19.009Z,2.33
2022-10-08T06:46:48.065Z,2.33
2022-10-08T06:49:18.231Z,2.23
2022-10-08T06:51:47.158Z,2.23
2022-10-08T06:54:16.185Z,2.07
2022-10-08T06:56:45.048Z,2.33
2022-10-08T06:59:14.057Z,1.90
2022-10-08T07:01:44.496Z,2.33
2022-10-08T07:04:13.522Z,2.67
2022-10-08T07:06:42.506Z,2.10
2022-10-08T07:09:13.272Z,2.63
2022-10-08T07:11:42.180Z,2.30
2022-10-08T07:14:11.112Z,3.10
2022-10-08T07:16:40.102Z,2.37
2022-10-08T07:19:10.662Z,2.50
2022-10-08T07:21:40.462Z,2.00
2022-10-08T07:24:09.490Z,2.53
2022-10-08T07:26:38.484Z,2.10
2022-10-08T07:29:09.734Z,2.70
2022-10-08T07:31:39.829Z,2.23
2022-10-08T07:34:12.868Z,1.70
2022-10-08T07:36:42.468Z,2.17
2022-10-08T07:39:14.487Z,1.73
2022-10-08T07:41:43.677Z,2.10
2022-10-08T07:44:13.553Z,1.93
2022-10-08T07:46:45.670Z,2.00
2022-10-08T07:49:17.172Z,2.10
2022-10-08T07:51:46.834Z,2.20
2022-10-08T07:54:18.118Z,1.87
2022-10-08T07:56:47.276Z,1.80
2022-10-08T07:59:16.392Z,1.20
2022-10-08T08:01:45.908Z,1.93
2022-10-08T08:04:16.286Z,1.73
2022-10-08T08:06:47.649Z,1.40
2022-10-08T08:09:18.128Z,2.07
2022-10-08T08:11:48.229Z,1.73
2022-10-08T08:14:17.246Z,1.93
2022-10-08T08:16:46.280Z,1.27
2022-10-08T08:19:16.559Z,1.53
2022-10-08T08:21:45.491Z,1.30
2022-10-08T08:24:16.517Z,1.83
2022-10-08T08:26:45.723Z,2.30
2022-10-08T08:29:16.626Z,1.10
2022-10-08T08:31:47.173Z,1.77
2022-10-08T08:34:22.692Z,1.23
2022-10-08T08:36:54.505Z,1.30
2022-10-08T08:39:25.346Z,1.63
2022-10-08T08:42:05.935Z,1.33
2022-10-08T08:44:38.849Z,1.50
2022-10-08T08:47:14.738Z,0.97
2022-10-08T08:49:48.309Z,1.40
2022-10-08T08:52:20.320Z,1.67
2022-10-08T08:54:50.066Z,1.30
2022-10-08T08:57:34.119Z,1.60
2022-10-08T09:00:07.034Z,1.13
2022-10-08T09:02:41.505Z,0.90
2022-10-08T09:05:16.795Z,1.15
2022-10-08T09:07:50.075Z,1.25
2022-10-08T09:10:23.531Z,1.27
2022-10-08T09:12:54.766Z,1.50
2022-10-08T09:15:30.694Z,1.45
2022-10-08T09:18:03.860Z,1.05
2022-10-08T09:20:39.997Z,1.02
2022-10-08T09:23:14.942Z,1.25
2022-10-08T09:25:48.326Z,1.40
2022-10-08T09:28:39.706Z,1.13
2022-10-08T09:31:25.804Z,1.05
2022-10-08T09:34:01.009Z,1.17
2022-10-08T09:36:45.111Z,1.02
2022-10-08T09:39:20.013Z,1.23
2022-10-08T09:42:09.824Z,1.17
2022-10-08T09:44:42.863Z,0.80
2022-10-08T09:47:14.757Z,0.70
2022-10-08T09:49:45.008Z,0.80
2022-10-08T09:52:20.557Z,0.73
2022-10-08T09:54:53.011Z,0.70
2022-10-08T09:57:23.204Z,0.73
2022-10-08T09:59:54.674Z,0.60
2022-10-08T10:02:30.809Z,1.08
2022-10-08T10:05:00.808Z,0.65
2022-10-08T10:07:42.495Z,0.65
2022-10-08T10:10:18.256Z,0.70
2022-10-08T10:12:52.191Z,0.65
2022-10-08T10:15:25.115Z,0.55
2022-10-08T10:17:56.611Z,0.70
2022-10-08T10:20:29.859Z,0.63
2022-10-08T10:23:06.373Z,0.55
2022-10-08T10:25:38.609Z,0.55
2022-10-08T10:28:12.724Z,0.47
2022-10-08T10:30:52.569Z,1.00
2022-10-08T10:33:26.631Z,1.77
2022-10-08T10:36:00.347Z,1.50
2022-10-08T10:38:32.341Z,1.27
2022-10-08T10:41:12.757Z,0.90
2022-10-08T10:43:48.117Z,0.40
2022-10-08T10:46:26.253Z,0.80
2022-10-08T10:48:55.702Z,0.60
2022-10-08T10:51:41.411Z,0.52
2022-10-08T10:54:32.275Z,0.40
2022-10-08T10:57:05.912Z,0.65
2022-10-08T10:59:47.281Z,0.90
2022-10-08T11:02:26.762Z,0.85
2022-10-08T11:05:04.176Z,0.43
2022-10-08T11:08:03.452Z,0.63
2022-10-08T11:10:52.733Z,0.57
2022-10-08T11:13:34.666Z,0.40
2022-10-08T11:16:15.696Z,0.22
2022-10-08T11:18:52.232Z,0.55
2022-10-08T11:21:40.029Z,0.50
2022-10-08T11:24:34.832Z,0.50
2022-10-08T11:27:15.672Z,0.30
2022-10-08T11:29:52.073Z,0.50
2022-10-08T11:32:21.662Z,0.40
2022-10-08T11:34:54.424Z,0.40
2022-10-08T11:37:27.889Z,0.70
2022-10-08T11:40:05.393Z,0.40
2022-10-08T11:42:48.078Z,0.50
2022-10-08T11:45:32.083Z,0.35
2022-10-08T11:48:05.333Z,0.20
2022-10-08T11:50:38.489Z,0.40
2022-10-08T11:53:18.772Z,0.40
2022-10-08T11:55:55.078Z,0.30
2022-10-08T11:58:29.235Z,0.30
2022-10-08T12:01:05.885Z,0.30
2022-10-08T12:03:37.211Z,0.30
2022-10-08T12:06:18.567Z,0.20
2022-10-08T12:08:53.581Z,0.32
2022-10-08T12:11:51.983Z,0.20
2022-10-08T12:14:48.601Z,0.47
2022-10-08T12:17:18.330Z,0.20
2022-10-08T12:20:21.872Z,0.55
2022-10-08T12:23:06.292Z,0.52
2022-10-08T12:25:44.209Z,0.28
2022-10-08T12:28:50.256Z,0.30
2022-10-08T12:31:27.757Z,0.52
2022-10-08T12:33:59.725Z,0.40
2022-10-08T12:36:37.653Z,0.88
2022-10-08T12:39:12.556Z,0.40
2022-10-08T12:41:49.106Z,0.60
2022-10-08T12:44:30.890Z,0.40
2022-10-08T12:47:10.381Z,0.80
2022-10-08T12:49:45.975Z,0.47
2022-10-08T12:52:16.524Z,0.70
2022-10-08T12:54:49.947Z,0.70
2022-10-08T12:57:23.705Z,0.60
2022-10-08T12:59:53.427Z,0.90
2022-10-08T13:02:38.114Z,0.73
2022-10-08T13:05:23.807Z,0.55
2022-10-08T13:07:54.410Z,0.65
2022-10-08T13:10:25.247Z,0.70
2022-10-08T13:13:01.298Z,0.70
2022-10-08T13:15:31.032Z,0.60
2022-10-08T13:18:01.981Z,0.90
2022-10-08T13:20:31.091Z,0.80
2022-10-08T13:23:05.064Z,0.90
2022-10-08T13:25:37.995Z,0.75
2022-10-08T13:28:12.491Z,0.68
2022-10-08T13:30:41.690Z,0.70
2022-10-08T13:33:17.893Z,0.80
2022-10-08T13:35:54.813Z,0.70
2022-10-08T13:38:26.258Z,0.55
2022-10-08T13:40:58.733Z,0.82
2022-10-08T13:43:28.128Z,0.80
2022-10-08T13:45:57.805Z,0.80
2022-10-08T13:48:28.075Z,0.40
2022-10-08T13:50:57.518Z,0.38
2022-10-08T13:53:27.942Z,0.70
2022-10-08T13:55:56.902Z,0.50
2022-10-08T13:58:25.808Z,0.70
2022-10-08T14:00:54.999Z,0.40
2022-10-08T14:03:24.127Z,0.32
2022-10-08T14:05:54.485Z,0.50
2022-10-08T14:08:27.135Z,0.68
2022-10-08T14:10:57.992Z,0.50
2022-10-08T14:13:29.253Z,0.40
2022-10-08T14:15:58.367Z,0.60
2022-10-08T14:18:27.359Z,0.70
2022-10-08T14:20:57.827Z,0.52
2022-10-08T14:23:26.759Z,0.50
2022-10-08T14:25:55.682Z,0.82
2022-10-08T14:28:24.995Z,0.57
2022-10-08T14:30:54.029Z,0.70
2022-10-08T14:33:22.985Z,0.82
2022-10-08T14:35:53.490Z,0.95
2022-10-08T14:38:24.584Z,1.00
2022-10-08T14:40:53.554Z,0.93
2022-10-08T14:43:25.653Z,1.25
2022-10-08T14:45:56.634Z,1.00
2022-10-08T14:48:25.650Z,1.27
2022-10-08T14:50:57.352Z,0.98
2022-10-08T14:53:27.773Z,1.40
2022-10-08T14:56:11.660Z,0.82
2022-10-08T14:58:41.322Z,0.73
2022-10-08T15:01:10.611Z,0.85
2022-10-08T15:03:39.619Z,0.60
2022-10-08T15:06:08.896Z,0.97
2022-10-08T15:08:40.312Z,0.77
2022-10-08T15:11:09.426Z,0.77
2022-10-08T15:13:38.394Z,0.80
2022-10-08T15:16:12.193Z,0.70
2022-10-08T15:18:41.201Z,0.83
2022-10-08T15:21:10.910Z,0.67
2022-10-08T15:23:41.210Z,1.00
2022-10-08T15:26:14.744Z,0.80
2022-10-08T15:28:45.940Z,0.80
2022-10-08T15:31:17.492Z,1.00
2022-10-08T15:33:48.126Z,1.20
2022-10-08T15:36:21.324Z,0.93
2022-10-08T15:38:59.338Z,0.83
2022-10-08T15:41:29.459Z,1.20
2022-10-08T15:44:07.256Z,0.83
2022-10-08T15:46:36.741Z,1.33
2022-10-08T15:49:06.830Z,1.10
2022-10-08T15:51:35.753Z,0.93
2022-10-08T15:54:06.307Z,1.10
2022-10-08T15:56:35.808Z,0.90
2022-10-08T15:59:05.934Z,1.10
2022-10-08T16:01:34.977Z,1.60
2022-10-08T16:04:04.010Z,1.20
2022-10-08T16:06:35.993Z,1.00
2022-10-08T16:09:06.792Z,1.10
2022-10-08T16:11:36.572Z,0.90
2022-10-08T16:14:08.462Z,1.10
2022-10-08T16:16:38.360Z,1.30
2022-10-08T16:19:09.091Z,0.90
2022-10-08T16:21:39.038Z,0.93
2022-10-08T16:24:09.906Z,1.90
2022-10-08T16:26:39.884Z,1.03
2022-10-08T16:29:10.837Z,1.23
2022-10-08T16:31:41.009Z,1.10
2022-10-08T16:34:14.106Z,0.90
2022-10-08T16:36:43.232Z,1.20
2022-10-08T16:39:17.746Z,1.07
2022-10-08T16:41:47.769Z,1.40
2022-10-08T16:44:18.880Z,1.10
2022-10-08T16:46:50.422Z,1.70
2022-10-08T16:49:24.631Z,1.90
2022-10-08T16:51:55.773Z,1.80
2022-10-08T16:54:26.249Z,1.27
2022-10-08T16:56:55.311Z,1.70
2022-10-08T16:59:25.874Z,1.40
2022-10-08T17:01:57.464Z,1.63
2022-10-08T17:04:28.677Z,1.80
2022-10-08T17:06:57.619Z,1.70
2022-10-08T17:09:27.926Z,1.57
2022-10-08T17:11:57.007Z,1.77
2022-10-08T17:14:25.935Z,1.77
2022-10-08T17:16:54.995Z,1.30
2022-10-08T17:19:23.955Z,1.23
2022-10-08T17:21:52.952Z,1.73
2022-10-08T17:24:22.081Z,1.30
2022-10-08T17:26:52.337Z,1.37
2022-10-08T17:29:21.298Z,1.53
2022-10-08T17:31:50.243Z,1.60
2022-10-08T17:34:19.245Z,1.60
2022-10-08T17:36:48.201Z,1.30
2022-10-08T17:39:21.000Z,1.30
2022-10-08T17:41:51.312Z,1.97
2022-10-08T17:44:20.587Z,1.67
2022-10-08T17:46:49.940Z,2.40
2022-10-08T17:49:20.498Z,1.90
2022-10-08T17:51:50.998Z,2.17
2022-10-08T17:54:21.163Z,1.87
2022-10-08T17:56:51.830Z,1.90
2022-10-08T17:59:22.825Z,1.80
2022-10-08T18:01:52.157Z,2.20
2022-10-08T18:04:21.412Z,2.00
2022-10-08T18:06:50.548Z,1.90
2022-10-08T18:09:21.367Z,2.33
2022-10-08T18:11:53.475Z,1.73
2022-10-08T18:14:24.222Z,2.30
2022-10-08T18:16:53.147Z,2.07
2022-10-08T18:19:22.109Z,1.87
2022-10-08T18:21:51.277Z,1.70
2022-10-08T18:24:20.624Z,1.87
2022-10-08T18:26:53.334Z,1.30
2022-10-08T18:29:22.512Z,1.43
2022-10-08T18:31:51.454Z,1.50
2022-10-08T18:34:20.757Z,1.77
2022-10-08T18:36:49.669Z,1.33
2022-10-08T18:39:24.811Z,1.63
2022-10-08T18:42:13.572Z,1.50
2022-10-08T18:44:43.167Z,2.10
2022-10-08T18:47:12.532Z,1.40
2022-10-08T18:49:41.710Z,1.53
2022-10-08T18:52:10.764Z,1.67
2022-10-08T18:54:39.732Z,2.13
2022-10-08T18:57:10.170Z,2.10
2022-10-08T18:59:39.789Z,2.00
2022-10-08T19:02:10.239Z,2.10
2022-10-08T19:04:39.455Z,2.47
2022-10-08T19:07:11.253Z,1.87
2022-10-08T19:09:40.667Z,2.07
2022-10-08T19:12:11.050Z,2.53
2022-10-08T19:14:39.980Z,3.03
2022-10-08T19:17:09.240Z,2.47
2022-10-08T19:19:38.484Z,1.60
2022-10-08T19:22:07.535Z,1.20
2022-10-08T19:24:40.862Z,1.70
2022-10-08T19:27:11.706Z,1.60
2022-10-08T19:29:40.876Z,1.87
2022-10-08T19:32:09.823Z,1.73
2022-10-08T19:34:38.983Z,1.60
2022-10-08T19:37:07.982Z,1.53
2022-10-08T19:39:41.711Z,1.50
2022-10-08T19:42:14.592Z,1.30
2022-10-08T19:44:46.237Z,1.53
2022-10-08T19:47:15.629Z,1.50
2022-10-08T19:49:48.719Z,1.67
2022-10-08T19:52:30.912Z,1.57
2022-10-08T19:54:59.957Z,1.40
2022-10-08T19:57:32.196Z,1.53
2022-10-08T20:00:01.717Z,1.77
2022-10-08T20:02:33.367Z,1.50
2022-10-08T20:05:02.951Z,1.53
2022-10-08T20:07:31.864Z,3.07
2022-10-08T20:10:01.677Z,1.93
2022-10-08T20:12:32.126Z,2.33
2022-10-08T20:15:01.173Z,2.20
2022-10-08T20:17:30.124Z,1.30
2022-10-08T20:20:15.229Z,2.77
2022-10-08T20:22:48.154Z,2.40
2022-10-08T20:25:20.244Z,1.77
2022-10-08T20:27:51.640Z,1.97
2022-10-08T20:30:21.553Z,2.03
2022-10-08T20:32:51.072Z,2.10
2022-10-08T20:35:20.731Z,2.63
2022-10-08T20:37:49.763Z,2.50
2022-10-08T20:40:18.899Z,2.23
2022-10-08T20:42:51.566Z,2.03
2022-10-08T20:45:20.569Z,2.03
2022-10-08T20:47:49.449Z,1.90
2022-10-08T20:50:18.455Z,1.70
2022-10-08T20:52:50.047Z,2.33
2022-10-08T20:55:19.582Z,2.03
2022-10-08T20:57:48.653Z,2.63
2022-10-08T21:00:20.033Z,2.23
2022-10-08T21:02:52.691Z,2.00
2022-10-08T21:05:21.792Z,1.93
2022-10-08T21:08:00.080Z,2.07
2022-10-08T21:10:37.680Z,2.00
2022-10-08T21:13:06.633Z,3.97
2022-10-08T21:15:36.884Z,2.50
2022-10-08T21:18:06.152Z,1.70
2022-10-08T21:20:39.672Z,2.63
2022-10-08T21:23:08.789Z,1.90
2022-10-08T21:25:37.721Z,1.93
2022-10-08T21:28:06.880Z,2.10
2022-10-08T21:30:37.367Z,2.20
2022-10-08T21:33:06.342Z,2.07
2022-10-08T21:35:37.818Z,2.47
2022-10-08T21:38:08.065Z,2.20
2022-10-08T21:40:37.513Z,2.50
2022-10-08T21:43:06.578Z,2.63
2022-10-08T21:45:36.894Z,2.20
2022-10-08T21:48:05.919Z,2.50
2022-10-08T21:50:36.230Z,2.23
2022-10-08T21:53:05.504Z,1.90
2022-10-08T21:55:34.571Z,1.90
2022-10-08T21:58:03.543Z,2.60
2022-10-08T22:00:34.720Z,2.53
2022-10-08T22:03:05.400Z,2.00
2022-10-08T22:05:34.377Z,1.87
2022-10-08T22:08:03.323Z,2.00
2022-10-08T22:10:32.262Z,2.13
2022-10-08T22:13:01.163Z,2.03
2022-10-08T22:15:30.185Z,1.87
2022-10-08T22:17:59.185Z,2.43
2022-10-08T22:20:29.883Z,2.00
2022-10-08T22:22:58.782Z,3.07
2022-10-08T22:25:27.698Z,2.10
2022-10-08T22:27:56.841Z,2.53
2022-10-08T22:30:26.114Z,1.93
2022-10-08T22:32:55.122Z,2.97
2022-10-08T22:35:24.034Z,2.00
2022-10-08T22:37:54.307Z,2.30
2022-10-08T22:40:23.225Z,2.20
2022-10-08T22:42:52.218Z,2.97
2022-10-08T22:45:21.216Z,2.70
2022-10-08T22:47:50.167Z,2.13
2022-10-08T22:50:19.772Z,3.53
2022-10-08T22:52:50.654Z,3.37
2022-10-08T22:55:21.621Z,2.63
2022-10-08T22:57:50.543Z,2.53
2022-10-08T23:00:19.547Z,3.77
2022-10-08T23:02:48.772Z,3.17
2022-10-08T23:05:18.169Z,7.27
2022-10-08T23:07:47.100Z,6.53
2022-10-08T23:10:16.326Z,6.53
2022-10-08T23:12:46.904Z,4.93
2022-10-08T23:15:16.238Z,8.87
2022-10-08T23:17:45.171Z,8.30
2022-10-08T23:20:14.083Z,7.10
2022-10-08T23:22:42.991Z,7.63
2022-10-08T23:25:11.953Z,12.80
2022-10-08T23:27:40.882Z,15.00
2022-10-08T23:30:31.377Z,11.93
2022-10-08T23:33:00.951Z,8.70
2022-10-08T23:35:29.860Z,7.70
2022-10-08T23:37:58.757Z,5.50
2022-10-08T23:40:27.735Z,4.97
2022-10-08T23:42:56.678Z,4.30
2022-10-08T23:45:26.957Z,4.70
2022-10-08T23:47:55.882Z,6.30
2022-10-08T23:50:24.820Z,4.90
2022-10-08T23:52:53.750Z,3.80
2022-10-08T23:55:22.681Z,4.40
2022-10-08T23:57:51.559Z,10.63
